createdAt,value
2022-12-24T00:00:46.775Z,2.56
2022-12-24T00:02:18.297Z,2.53
2022-12-24T00:03:49.934Z,2.36
2022-12-24T00:05:21.617Z,3.29
2022-12-24T00:06:53.022Z,3.59
2022-12-24T00:08:24.487Z,3.57
2022-12-24T00:09:55.760Z,2.98
2022-12-24T00:11:27.328Z,2.69
2022-12-24T00:12:58.736Z,2.75
2022-12-24T00:14:30.021Z,2.87
2022-12-24T00:16:01.363Z,3.00
2022-12-24T00:17:37.715Z,3.57
2022-12-24T00:19:09.048Z,3.18
2022-12-24T00:20:40.382Z,2.97
2022-12-24T00:22:12.667Z,2.72
2022-12-24T00:23:44.100Z,3.20
2022-12-24T00:25:15.751Z,3.05
2022-12-24T00:26:47.256Z,3.32
2022-12-24T00:28:18.682Z,2.73
2022-12-24T00:29:50.228Z,2.84
2022-12-24T00:31:21.708Z,3.18
2022-12-24T00:32:53.148Z,4.11
2022-12-24T00:34:24.475Z,3.79
2022-12-24T00:35:55.774Z,4.08
2022-12-24T00:37:27.063Z,3.71
2022-12-24T00:38:58.389Z,3.50
2022-12-24T00:40:31.260Z,4.20
2022-12-24T00:42:02.557Z,3.65
2022-12-24T00:43:33.872Z,3.62
2022-12-24T00:45:05.305Z,3.90
2022-12-24T00:46:36.694Z,3.67
2022-12-24T00:48:08.016Z,3.42
2022-12-24T00:49:39.368Z,4.26
2022-12-24T00:51:10.739Z,4.62
2022-12-24T00:52:42.093Z,3.45
2022-12-24T00:54:13.430Z,3.79
2022-12-24T00:55:44.817Z,3.67
2022-12-24T00:57:16.137Z,3.90
2022-12-24T00:58:47.572Z,4.06
2022-12-24T01:00:19.028Z,4.35
2022-12-24T01:01:51.640Z,3.63
2022-12-24T01:03:23.148Z,3.49
2022-12-24T01:04:54.460Z,3.75
2022-12-24T01:06:26.231Z,3.70
2022-12-24T01:07:58.040Z,3.30
2022-12-24T01:09:29.354Z,3.95
2022-12-24T01:11:00.676Z,3.00
2022-12-24T01:12:32.015Z,3.50
2022-12-24T01:14:03.622Z,3.03
2022-12-24T01:15:35.149Z,3.65
2022-12-24T01:17:06.474Z,3.10
2022-12-24T01:18:38.194Z,2.74
2022-12-24T01:20:09.905Z,2.48
2022-12-24T01:21:41.308Z,4.16
2022-12-24T01:23:12.849Z,3.67
2022-12-24T01:24:44.146Z,3.23
2022-12-24T01:26:15.472Z,4.82
2022-12-24T01:27:46.914Z,3.05
2022-12-24T01:29:18.220Z,2.95
2022-12-24T01:30:49.833Z,3.76
2022-12-24T01:32:21.178Z,3.18
2022-12-24T01:33:52.494Z,4.27
2022-12-24T01:35:23.818Z,4.55
2022-12-24T01:36:55.088Z,2.94
2022-12-24T01:38:26.501Z,2.65
2022-12-24T01:39:58.035Z,3.08
2022-12-24T01:41:29.345Z,2.82
2022-12-24T01:43:00.675Z,3.75
2022-12-24T01:44:37.471Z,4.68
2022-12-24T01:46:08.961Z,3.47
2022-12-24T01:47:40.447Z,3.40
2022-12-24T01:49:11.746Z,4.59
2022-12-24T01:50:43.183Z,3.86
2022-12-24T01:52:14.615Z,3.55
2022-12-24T01:53:45.896Z,3.51
2022-12-24T01:55:17.207Z,4.14
2022-12-24T01:56:48.554Z,4.14
2022-12-24T01:58:20.356Z,3.58
2022-12-24T01:59:51.667Z,3.45
2022-12-24T02:01:23.080Z,3.31
2022-12-24T02:02:54.532Z,3.45
2022-12-24T02:04:26.002Z,3.64
2022-12-24T02:05:57.305Z,3.92
2022-12-24T02:07:28.730Z,4.12
2022-12-24T02:09:00.129Z,4.58
2022-12-24T02:10:31.427Z,3.19
2022-12-24T02:12:08.086Z,4.65
2022-12-24T02:13:39.386Z,3.20
2022-12-24T02:15:10.644Z,3.88
2022-12-24T02:16:42.056Z,3.34
2022-12-24T02:18:13.421Z,3.58
2022-12-24T02:19:44.900Z,3.69
2022-12-24T02:21:16.449Z,3.22
2022-12-24T02:22:47.876Z,4.06
2022-12-24T02:24:19.175Z,4.06
2022-12-24T02:25:50.578Z,3.93
2022-12-24T02:27:27.341Z,3.67
2022-12-24T02:28:58.664Z,3.08
2022-12-24T02:30:29.977Z,3.98
2022-12-24T02:32:01.515Z,3.90
2022-12-24T02:33:33.013Z,3.64
2022-12-24T02:35:04.725Z,3.88
2022-12-24T02:36:36.128Z,4.22
2022-12-24T02:38:07.426Z,4.01
2022-12-24T02:39:38.675Z,3.72
2022-12-24T02:41:09.945Z,4.22
2022-12-24T02:42:42.663Z,2.97
2022-12-24T02:44:14.027Z,4.07
2022-12-24T02:45:45.436Z,4.55
2022-12-24T02:47:16.792Z,3.65
2022-12-24T02:48:48.599Z,3.53
2022-12-24T02:50:20.071Z,3.98
2022-12-24T02:51:51.367Z,4.19
2022-12-24T02:53:22.707Z,4.56
2022-12-24T02:54:53.999Z,3.90
2022-12-24T02:56:25.373Z,4.22
2022-12-24T02:57:56.690Z,4.20
2022-12-24T02:59:28.236Z,4.41
2022-12-24T03:00:59.637Z,5.19
2022-12-24T03:02:31.017Z,4.36
2022-12-24T03:04:02.328Z,3.96
2022-12-24T03:05:33.637Z,4.02
2022-12-24T03:07:05.055Z,3.56
2022-12-24T03:08:36.482Z,4.45
2022-12-24T03:10:07.868Z,4.09
2022-12-24T03:11:39.234Z,5.04
2022-12-24T03:13:10.939Z,4.48
2022-12-24T03:14:42.391Z,3.63
2022-12-24T03:16:13.719Z,3.43
2022-12-24T03:17:45.145Z,4.94
2022-12-24T03:19:16.473Z,4.90
2022-12-24T03:20:48.066Z,5.31
2022-12-24T03:22:19.400Z,4.13
2022-12-24T03:23:50.859Z,4.24
2022-12-24T03:25:22.761Z,3.76
2022-12-24T03:26:54.280Z,4.31
2022-12-24T03:28:25.700Z,4.80
2022-12-24T03:29:57.084Z,4.93
2022-12-24T03:31:28.449Z,4.24
2022-12-24T03:32:59.756Z,3.26
2022-12-24T03:34:31.115Z,4.12
2022-12-24T03:36:02.381Z,4.42
2022-12-24T03:37:33.778Z,4.98
2022-12-24T03:39:05.099Z,4.51
2022-12-24T03:40:36.366Z,4.15
2022-12-24T03:42:07.882Z,3.83
2022-12-24T03:43:39.254Z,4.76
2022-12-24T03:45:10.587Z,4.13
2022-12-24T03:46:41.850Z,3.92
2022-12-24T03:48:13.152Z,3.98
2022-12-24T03:49:44.667Z,3.77
2022-12-24T03:51:15.994Z,5.32
2022-12-24T03:52:47.646Z,4.40
2022-12-24T03:54:19.308Z,3.80
2022-12-24T03:55:52.854Z,4.24
2022-12-24T03:57:24.179Z,4.53
2022-12-24T03:58:55.589Z,3.84
2022-12-24T04:00:26.920Z,3.47
2022-12-24T04:02:03.358Z,4.57
2022-12-24T04:03:34.869Z,3.86
2022-12-24T04:05:11.224Z,4.40
2022-12-24T04:06:42.543Z,3.95
2022-12-24T04:08:14.137Z,4.71
2022-12-24T04:09:45.643Z,4.90
2022-12-24T04:11:16.999Z,4.34
2022-12-24T04:12:48.284Z,3.50
2022-12-24T04:14:20.428Z,4.06
2022-12-24T04:15:52.200Z,4.08
2022-12-24T04:17:23.710Z,4.02
2022-12-24T04:18:55.043Z,4.39
2022-12-24T04:20:26.442Z,4.25
2022-12-24T04:21:58.011Z,3.23
2022-12-24T04:23:29.388Z,3.80
2022-12-24T04:25:00.719Z,4.64
2022-12-24T04:26:31.995Z,3.29
2022-12-24T04:28:03.343Z,3.92
2022-12-24T04:29:35.021Z,4.45
2022-12-24T04:31:06.551Z,4.97
2022-12-24T04:32:37.871Z,4.71
2022-12-24T04:34:09.245Z,4.39
2022-12-24T04:35:40.623Z,4.88
2022-12-24T04:37:11.931Z,4.38
2022-12-24T04:38:43.259Z,4.64
2022-12-24T04:40:14.879Z,4.39
2022-12-24T04:41:46.193Z,4.07
2022-12-24T04:43:17.601Z,3.70
2022-12-24T04:44:49.011Z,5.04
2022-12-24T04:46:20.333Z,3.85
2022-12-24T04:47:51.827Z,3.84
2022-12-24T04:49:23.107Z,4.04
2022-12-24T04:50:54.410Z,3.68
2022-12-24T04:52:25.848Z,4.00
2022-12-24T04:53:57.713Z,3.42
2022-12-24T04:55:29.071Z,3.77
2022-12-24T04:57:00.508Z,4.19
2022-12-24T04:58:33.062Z,3.50
2022-12-24T05:00:04.420Z,4.60
2022-12-24T05:01:35.765Z,4.43
2022-12-24T05:03:07.156Z,3.50
2022-12-24T05:04:38.652Z,4.25
2022-12-24T05:06:10.107Z,3.63
2022-12-24T05:07:41.999Z,2.89
2022-12-24T05:09:13.305Z,3.69
2022-12-24T05:10:44.716Z,3.33
2022-12-24T05:12:16.169Z,2.93
2022-12-24T05:13:48.227Z,3.29
2022-12-24T05:15:19.877Z,3.21
2022-12-24T05:16:51.359Z,3.53
2022-12-24T05:18:22.799Z,3.19
2022-12-24T05:19:54.110Z,3.96
2022-12-24T05:21:25.713Z,4.01
2022-12-24T05:22:57.089Z,4.05
2022-12-24T05:24:28.468Z,3.93
2022-12-24T05:25:59.875Z,3.66
2022-12-24T05:27:31.387Z,4.42
2022-12-24T05:29:02.711Z,4.02
2022-12-24T05:30:34.091Z,4.46
2022-12-24T05:32:05.484Z,4.17
2022-12-24T05:33:36.980Z,3.76
2022-12-24T05:35:08.401Z,3.79
2022-12-24T05:36:39.752Z,2.87
2022-12-24T05:38:11.105Z,4.54
2022-12-24T05:39:42.375Z,3.42
2022-12-24T05:41:13.777Z,3.25
2022-12-24T05:42:45.220Z,3.27
2022-12-24T05:44:16.618Z,3.49
2022-12-24T05:45:53.044Z,4.00
2022-12-24T05:47:24.364Z,3.65
2022-12-24T05:48:55.718Z,3.86
2022-12-24T05:50:27.027Z,2.89
2022-12-24T05:51:58.603Z,4.19
2022-12-24T05:53:30.001Z,2.87
2022-12-24T05:55:01.713Z,2.71
2022-12-24T05:56:33.004Z,3.29
2022-12-24T05:58:04.382Z,3.00
2022-12-24T05:59:35.825Z,3.79
2022-12-24T06:01:07.311Z,2.83
2022-12-24T06:02:38.596Z,3.23
2022-12-24T06:04:09.912Z,3.13
2022-12-24T06:05:41.238Z,3.21
2022-12-24T06:07:12.505Z,2.84
2022-12-24T06:08:44.070Z,3.67
2022-12-24T06:10:15.665Z,2.20
2022-12-24T06:11:47.119Z,3.52
2022-12-24T06:13:18.445Z,4.11
2022-12-24T06:14:49.758Z,3.10
2022-12-24T06:16:21.536Z,3.52
2022-12-24T06:17:52.884Z,3.42
2022-12-24T06:19:24.220Z,2.64
2022-12-24T06:20:55.732Z,3.60
2022-12-24T06:22:28.236Z,3.27
2022-12-24T06:23:59.578Z,3.46
2022-12-24T06:25:30.903Z,4.17
2022-12-24T06:27:02.299Z,3.60
2022-12-24T06:28:33.720Z,3.05
2022-12-24T06:30:05.000Z,3.46
2022-12-24T06:31:36.616Z,2.88
2022-12-24T06:33:08.200Z,3.14
2022-12-24T06:34:39.502Z,3.37
2022-12-24T06:36:16.924Z,3.69
2022-12-24T06:37:49.198Z,3.60
2022-12-24T06:39:20.648Z,3.34
2022-12-24T06:40:52.094Z,3.31
2022-12-24T06:42:23.775Z,3.90
2022-12-24T06:43:55.315Z,2.73
2022-12-24T06:45:26.806Z,2.30
2022-12-24T06:46:58.612Z,2.72
2022-12-24T06:48:30.075Z,2.87
2022-12-24T06:50:01.461Z,2.01
2022-12-24T06:51:33.077Z,2.89
2022-12-24T06:53:04.600Z,3.19
2022-12-24T06:54:35.934Z,2.42
2022-12-24T06:56:07.461Z,2.99
2022-12-24T06:57:38.806Z,3.42
2022-12-24T06:59:10.120Z,3.36
2022-12-24T07:00:42.020Z,2.73
2022-12-24T07:02:13.854Z,2.80
2022-12-24T07:03:45.401Z,2.68
2022-12-24T07:05:17.117Z,3.22
2022-12-24T07:06:48.953Z,3.35
2022-12-24T07:08:20.373Z,2.77
2022-12-24T07:09:51.615Z,3.42
2022-12-24T07:11:23.049Z,3.42
2022-12-24T07:12:59.450Z,2.59
2022-12-24T07:14:30.752Z,2.46
2022-12-24T07:16:02.437Z,3.01
2022-12-24T07:17:34.029Z,3.62
2022-12-24T07:19:05.358Z,3.37
2022-12-24T07:20:36.824Z,2.62
2022-12-24T07:22:15.030Z,3.20
2022-12-24T07:23:46.897Z,3.74
2022-12-24T07:25:18.148Z,3.28
2022-12-24T07:26:49.576Z,3.35
2022-12-24T07:28:27.557Z,3.60
2022-12-24T07:29:59.817Z,2.80
2022-12-24T07:31:31.458Z,3.16
2022-12-24T07:33:02.833Z,2.77
2022-12-24T07:34:34.309Z,3.36
2022-12-24T07:36:05.568Z,3.90
2022-12-24T07:37:37.027Z,4.14
2022-12-24T07:39:08.385Z,3.43
2022-12-24T07:40:40.091Z,3.69
2022-12-24T07:42:13.512Z,3.05
2022-12-24T07:43:45.034Z,3.45
2022-12-24T07:45:16.351Z,3.33
2022-12-24T07:46:47.706Z,3.13
2022-12-24T07:48:19.180Z,2.95
2022-12-24T07:49:50.847Z,3.77
2022-12-24T07:51:22.188Z,4.07
2022-12-24T07:52:53.585Z,4.70
2022-12-24T07:54:25.195Z,4.32
2022-12-24T07:55:56.605Z,3.91
2022-12-24T07:57:28.096Z,3.35
2022-12-24T07:58:59.426Z,4.32
2022-12-24T08:00:30.722Z,4.24
2022-12-24T08:02:02.331Z,3.67
2022-12-24T08:03:33.934Z,4.13
2022-12-24T08:05:05.378Z,4.03
2022-12-24T08:06:36.694Z,4.22
2022-12-24T08:08:07.971Z,4.28
2022-12-24T08:09:39.221Z,4.25
2022-12-24T08:11:10.509Z,3.35
2022-12-24T08:12:41.956Z,3.54
2022-12-24T08:14:13.465Z,3.54
2022-12-24T08:15:44.935Z,3.74
2022-12-24T08:17:16.343Z,3.64
2022-12-24T08:18:47.683Z,4.71
2022-12-24T08:20:18.958Z,3.78
2022-12-24T08:21:50.276Z,2.94
2022-12-24T08:23:21.839Z,4.33
2022-12-24T08:24:53.385Z,3.70
2022-12-24T08:26:24.709Z,4.72
2022-12-24T08:27:56.032Z,3.97
2022-12-24T08:29:27.323Z,3.72
2022-12-24T08:30:58.839Z,3.68
2022-12-24T08:32:30.182Z,4.06
2022-12-24T08:34:01.465Z,3.37
2022-12-24T08:35:33.779Z,3.09
2022-12-24T08:37:05.030Z,3.91
2022-12-24T08:38:36.387Z,3.51
2022-12-24T08:40:07.652Z,4.22
2022-12-24T08:41:39.111Z,3.94
2022-12-24T08:43:10.420Z,3.72
2022-12-24T08:44:41.719Z,3.68
2022-12-24T08:46:13.197Z,4.52
2022-12-24T08:47:44.785Z,3.51
2022-12-24T08:49:16.227Z,4.26
2022-12-24T08:50:47.709Z,4.67
2022-12-24T08:52:19.107Z,3.06
2022-12-24T08:53:50.536Z,3.41
2022-12-24T08:55:21.929Z,4.02
2022-12-24T08:56:53.247Z,4.13
2022-12-24T08:58:24.560Z,4.42
2022-12-24T08:59:56.012Z,3.85
2022-12-24T09:01:27.490Z,3.79
2022-12-24T09:02:59.339Z,3.85
2022-12-24T09:04:31.024Z,4.02
2022-12-24T09:06:02.314Z,3.03
2022-12-24T09:07:33.579Z,4.34
2022-12-24T09:09:04.930Z,4.90
2022-12-24T09:10:36.169Z,3.77
2022-12-24T09:12:07.461Z,4.13
2022-12-24T09:13:38.738Z,4.43
2022-12-24T09:15:10.347Z,4.44
2022-12-24T09:16:41.684Z,4.71
2022-12-24T09:18:13.048Z,3.85
2022-12-24T09:19:44.379Z,4.60
2022-12-24T09:21:15.698Z,4.10
2022-12-24T09:22:47.035Z,4.88
2022-12-24T09:24:18.530Z,3.71
2022-12-24T09:25:49.845Z,4.91
2022-12-24T09:27:21.185Z,3.87
2022-12-24T09:28:52.492Z,4.38
2022-12-24T09:30:23.808Z,5.05
2022-12-24T09:31:55.316Z,4.73
2022-12-24T09:33:26.905Z,5.32
2022-12-24T09:34:58.611Z,4.62
2022-12-24T09:36:29.933Z,5.14
2022-12-24T09:38:02.881Z,4.73
2022-12-24T09:39:34.385Z,4.91
2022-12-24T09:41:08.989Z,5.49
2022-12-24T09:42:40.499Z,4.81
2022-12-24T09:44:11.847Z,4.13
2022-12-24T09:45:43.146Z,4.84
2022-12-24T09:47:14.755Z,4.52
2022-12-24T09:48:46.135Z,4.45
2022-12-24T09:50:17.738Z,4.17
2022-12-24T09:51:49.139Z,5.11
2022-12-24T09:53:20.648Z,4.74
2022-12-24T09:54:52.191Z,4.86
2022-12-24T09:56:23.617Z,4.21
2022-12-24T09:57:55.032Z,5.10
2022-12-24T09:59:26.406Z,4.57
2022-12-24T10:00:57.787Z,4.64
2022-12-24T10:02:29.382Z,4.08
2022-12-24T10:04:00.865Z,4.23
2022-12-24T10:05:32.177Z,4.32
2022-12-24T10:07:03.657Z,5.10
2022-12-24T10:08:35.085Z,4.83
2022-12-24T10:10:06.433Z,4.91
2022-12-24T10:11:37.745Z,4.29
2022-12-24T10:13:09.141Z,4.42
2022-12-24T10:14:40.610Z,4.88
2022-12-24T10:16:12.054Z,4.03
2022-12-24T10:17:43.421Z,4.26
2022-12-24T10:19:14.959Z,3.66
2022-12-24T10:20:46.320Z,3.96
2022-12-24T10:22:17.608Z,3.53
2022-12-24T10:23:49.016Z,3.98
2022-12-24T10:25:20.373Z,4.05
2022-12-24T10:26:51.780Z,4.07
2022-12-24T10:28:23.113Z,3.74
2022-12-24T10:29:54.673Z,4.23
2022-12-24T10:31:26.307Z,4.46
2022-12-24T10:32:57.828Z,4.10
2022-12-24T10:34:29.341Z,3.81
2022-12-24T10:36:03.146Z,2.84
2022-12-24T10:37:36.732Z,4.73
2022-12-24T10:39:08.140Z,5.07
2022-12-24T10:40:39.389Z,4.52
2022-12-24T10:42:10.926Z,3.50
2022-12-24T10:43:42.266Z,3.66
2022-12-24T10:45:13.567Z,4.02
2022-12-24T10:46:44.981Z,3.33
2022-12-24T10:48:16.457Z,3.25
2022-12-24T10:49:47.866Z,3.93
2022-12-24T10:51:19.464Z,2.91
2022-12-24T10:52:50.804Z,3.48
2022-12-24T10:54:27.072Z,3.36
2022-12-24T10:55:59.422Z,4.72
2022-12-24T10:57:30.731Z,4.94
2022-12-24T10:59:02.323Z,3.68
2022-12-24T11:00:35.925Z,4.32
2022-12-24T11:02:08.271Z,4.41
2022-12-24T11:03:44.749Z,3.96
2022-12-24T11:05:16.244Z,3.66
2022-12-24T11:06:49.380Z,5.28
2022-12-24T11:08:20.842Z,5.87
2022-12-24T11:09:52.154Z,4.54
2022-12-24T11:11:24.886Z,3.75
2022-12-24T11:13:27.828Z,4.60
2022-12-24T11:15:06.983Z,4.92
2022-12-24T11:16:38.335Z,4.43
2022-12-24T11:18:09.708Z,3.75
2022-12-24T11:19:41.403Z,3.48
2022-12-24T11:21:12.697Z,5.10
2022-12-24T11:22:45.284Z,5.06
2022-12-24T11:24:16.625Z,5.58
2022-12-24T11:25:48.261Z,5.02
2022-12-24T11:27:19.745Z,4.15
2022-12-24T11:28:51.809Z,4.52
2022-12-24T11:30:23.129Z,4.88
2022-12-24T11:31:54.651Z,3.75
2022-12-24T11:33:26.072Z,4.05
2022-12-24T11:34:57.498Z,4.55
2022-12-24T11:36:29.027Z,5.31
2022-12-24T11:38:00.498Z,5.51
2022-12-24T11:39:31.801Z,4.96
2022-12-24T11:41:03.238Z,5.37
2022-12-24T11:42:34.982Z,5.83
2022-12-24T11:44:06.296Z,4.96
2022-12-24T11:45:37.870Z,3.64
2022-12-24T11:47:09.161Z,4.27
2022-12-24T11:48:40.608Z,5.38
2022-12-24T11:50:20.461Z,4.95
2022-12-24T11:51:52.014Z,4.67
2022-12-24T11:53:23.350Z,4.99
2022-12-24T11:54:55.723Z,4.61
2022-12-24T11:56:27.123Z,4.13
2022-12-24T11:57:58.597Z,5.10
2022-12-24T11:59:29.891Z,4.68
2022-12-24T12:01:01.456Z,4.43
2022-12-24T12:02:32.810Z,4.64
2022-12-24T12:04:04.190Z,4.38
2022-12-24T12:05:35.818Z,4.23
2022-12-24T12:07:12.777Z,4.44
2022-12-24T12:08:46.039Z,4.94
2022-12-24T12:10:17.465Z,4.90
2022-12-24T12:11:48.804Z,5.07
2022-12-24T12:13:20.201Z,4.50
2022-12-24T12:14:51.544Z,5.01
2022-12-24T12:16:23.090Z,5.25
2022-12-24T12:17:54.623Z,5.54
2022-12-24T12:19:25.988Z,5.79
2022-12-24T12:20:57.301Z,4.71
2022-12-24T12:22:28.581Z,4.14
2022-12-24T12:23:59.903Z,5.67
2022-12-24T12:25:31.445Z,5.68
2022-12-24T12:27:03.048Z,4.55
2022-12-24T12:28:34.899Z,5.69
2022-12-24T12:30:06.408Z,5.56
2022-12-24T12:31:37.903Z,5.82
2022-12-24T12:33:09.462Z,4.38
2022-12-24T12:34:46.976Z,3.83
2022-12-24T12:36:18.744Z,5.45
2022-12-24T12:37:50.075Z,5.36
2022-12-24T12:39:21.411Z,5.22
2022-12-24T12:40:53.229Z,5.85
2022-12-24T12:42:25.591Z,4.12
2022-12-24T12:43:56.963Z,3.92
2022-12-24T12:45:28.489Z,4.24
2022-12-24T12:46:59.931Z,5.10
2022-12-24T12:48:31.584Z,5.21
2022-12-24T12:50:04.565Z,5.31
2022-12-24T12:51:40.931Z,5.35
2022-12-24T12:53:12.250Z,6.19
2022-12-24T12:54:43.698Z,4.29
2022-12-24T12:56:15.007Z,4.47
2022-12-24T12:57:46.422Z,4.47
2022-12-24T12:59:18.149Z,4.62
2022-12-24T13:00:49.741Z,4.65
2022-12-24T13:02:21.196Z,4.26
2022-12-24T13:03:54.212Z,3.89
2022-12-24T13:05:25.822Z,4.59
2022-12-24T13:06:57.208Z,5.07
2022-12-24T13:08:28.730Z,5.70
2022-12-24T13:10:00.152Z,4.82
2022-12-24T13:11:31.799Z,4.54
2022-12-24T13:13:03.099Z,4.88
2022-12-24T13:14:34.552Z,4.65
2022-12-24T13:16:05.939Z,4.84
2022-12-24T13:17:37.313Z,4.17
2022-12-24T13:19:08.761Z,3.14
2022-12-24T13:20:40.074Z,3.74
2022-12-24T13:22:13.141Z,4.42
2022-12-24T13:23:44.510Z,4.66
2022-12-24T13:25:15.966Z,4.04
2022-12-24T13:26:47.410Z,3.93
2022-12-24T13:28:18.748Z,4.04
2022-12-24T13:29:50.394Z,3.82
2022-12-24T13:31:21.900Z,3.97
2022-12-24T13:32:53.286Z,3.93
2022-12-24T13:34:24.730Z,4.97
2022-12-24T13:35:56.079Z,4.09
2022-12-24T13:37:27.391Z,4.80
2022-12-24T13:38:58.857Z,4.49
2022-12-24T13:40:30.235Z,4.18
2022-12-24T13:42:01.555Z,4.26
2022-12-24T13:43:32.995Z,4.09
2022-12-24T13:45:04.476Z,4.16
2022-12-24T13:46:35.808Z,4.16
2022-12-24T13:48:07.125Z,3.91
2022-12-24T13:49:38.771Z,4.12
2022-12-24T13:51:10.195Z,3.82
2022-12-24T13:52:42.864Z,3.94
2022-12-24T13:54:14.522Z,4.35
2022-12-24T13:55:45.926Z,4.91
2022-12-24T13:57:17.237Z,4.30
2022-12-24T13:58:48.662Z,4.05
2022-12-24T14:00:19.950Z,5.05
2022-12-24T14:01:51.603Z,3.95
2022-12-24T14:03:23.159Z,3.62
2022-12-24T14:04:54.541Z,4.00
2022-12-24T14:06:26.007Z,3.93
2022-12-24T14:07:57.620Z,4.71
2022-12-24T14:09:28.996Z,4.11
2022-12-24T14:11:00.435Z,4.33
2022-12-24T14:12:31.919Z,3.61
2022-12-24T14:14:03.360Z,3.78
2022-12-24T14:15:34.733Z,4.09
2022-12-24T14:17:06.104Z,3.11
2022-12-24T14:18:37.445Z,4.10
2022-12-24T14:20:08.967Z,2.78
2022-12-24T14:21:40.466Z,2.81
2022-12-24T14:23:11.772Z,3.23
2022-12-24T14:24:43.187Z,3.91
2022-12-24T14:26:14.976Z,3.18
2022-12-24T14:27:46.366Z,3.07
2022-12-24T14:29:24.436Z,2.79
2022-12-24T14:30:56.362Z,3.65
2022-12-24T14:32:28.230Z,3.94
2022-12-24T14:33:59.836Z,3.62
2022-12-24T14:35:31.205Z,3.46
2022-12-24T14:37:02.472Z,3.79
2022-12-24T14:38:33.865Z,3.97
2022-12-24T14:40:05.322Z,3.65
2022-12-24T14:41:36.719Z,3.26
2022-12-24T14:43:08.017Z,3.02
2022-12-24T14:44:39.502Z,4.16
2022-12-24T14:46:10.941Z,3.55
2022-12-24T14:47:42.337Z,3.66
2022-12-24T14:49:13.648Z,3.25
2022-12-24T14:50:45.183Z,3.52
2022-12-24T14:52:38.005Z,4.16
2022-12-24T14:54:34.784Z,3.70
2022-12-24T14:56:06.202Z,4.08
2022-12-24T14:57:37.863Z,4.93
2022-12-24T14:59:09.338Z,4.73
2022-12-24T15:00:40.778Z,4.15
2022-12-24T15:02:12.461Z,4.28
2022-12-24T15:03:43.915Z,3.92
2022-12-24T15:05:15.372Z,4.98
2022-12-24T15:06:46.791Z,4.63
2022-12-24T15:08:18.142Z,4.18
2022-12-24T15:09:49.445Z,3.95
2022-12-24T15:11:20.787Z,4.36
2022-12-24T15:12:52.626Z,4.15
2022-12-24T15:14:23.989Z,4.16
2022-12-24T15:15:55.293Z,3.81
2022-12-24T15:17:26.902Z,3.99
2022-12-24T15:18:58.346Z,4.29
2022-12-24T15:20:29.778Z,4.56
2022-12-24T15:22:01.522Z,4.50
2022-12-24T15:23:32.835Z,5.10
2022-12-24T15:25:04.145Z,5.28
2022-12-24T15:26:35.475Z,5.25
2022-12-24T15:28:06.744Z,4.95
2022-12-24T15:29:38.379Z,4.41
2022-12-24T15:31:09.803Z,3.90
2022-12-24T15:32:41.137Z,3.91
2022-12-24T15:34:12.466Z,4.60
2022-12-24T15:35:43.883Z,4.52
2022-12-24T15:37:15.210Z,7.10
2022-12-24T15:38:46.612Z,5.85
2022-12-24T15:40:18.128Z,4.81
2022-12-24T15:41:49.443Z,4.52
2022-12-24T15:43:20.783Z,4.86
2022-12-24T15:44:52.081Z,4.71
2022-12-24T15:46:23.478Z,4.66
2022-12-24T15:47:54.915Z,5.10
2022-12-24T15:49:26.227Z,4.74
2022-12-24T15:50:57.672Z,5.19
2022-12-24T15:52:29.276Z,5.78
2022-12-24T15:54:00.615Z,5.60
2022-12-24T15:55:31.925Z,5.44
2022-12-24T15:57:03.413Z,5.80
2022-12-24T15:58:34.912Z,5.40
2022-12-24T16:00:06.146Z,5.27
2022-12-24T16:01:37.619Z,5.33
2022-12-24T16:03:09.156Z,6.00
2022-12-24T16:04:40.683Z,5.38
2022-12-24T16:06:12.311Z,8.36
2022-12-24T16:07:43.562Z,6.17
2022-12-24T16:09:14.906Z,6.17
2022-12-24T16:10:46.222Z,5.93
2022-12-24T16:12:17.597Z,5.77
2022-12-24T16:13:49.030Z,5.69
2022-12-24T16:15:20.498Z,5.65
2022-12-24T16:16:51.845Z,5.34
2022-12-24T16:18:23.253Z,5.42
2022-12-24T16:19:54.929Z,5.16
2022-12-24T16:21:26.191Z,5.86
2022-12-24T16:22:58.099Z,5.83
2022-12-24T16:24:29.546Z,5.60
2022-12-24T16:26:00.955Z,5.55
2022-12-24T16:27:32.361Z,5.26
2022-12-24T16:29:03.628Z,5.53
2022-12-24T16:30:34.991Z,5.37
2022-12-24T16:32:06.388Z,5.50
2022-12-24T16:33:37.944Z,5.60
2022-12-24T16:35:09.603Z,5.52
2022-12-24T16:36:41.144Z,5.75
2022-12-24T16:38:12.547Z,5.59
2022-12-24T16:39:44.943Z,5.90
2022-12-24T16:41:16.233Z,5.73
2022-12-24T16:42:47.517Z,5.30
2022-12-24T16:44:18.919Z,5.45
2022-12-24T16:45:50.420Z,5.90
2022-12-24T16:47:21.866Z,5.78
2022-12-24T16:48:53.188Z,5.70
2022-12-24T16:50:24.489Z,5.46
2022-12-24T16:51:55.777Z,5.83
2022-12-24T16:53:27.125Z,6.14
2022-12-24T16:54:58.519Z,6.21
2022-12-24T16:56:29.842Z,6.13
2022-12-24T16:58:01.277Z,6.04
2022-12-24T16:59:32.539Z,6.25
2022-12-24T17:01:03.905Z,6.12
2022-12-24T17:02:35.530Z,6.24
2022-12-24T17:04:07.361Z,6.26
2022-12-24T17:05:38.934Z,7.61
2022-12-24T17:07:10.410Z,7.58
2022-12-24T17:08:41.747Z,8.60
2022-12-24T17:10:13.045Z,8.07
2022-12-24T17:11:44.481Z,8.12
2022-12-24T17:13:15.766Z,6.90
2022-12-24T17:14:47.075Z,6.85
2022-12-24T17:16:18.456Z,6.42
2022-12-24T17:17:49.791Z,6.56
2022-12-24T17:19:21.098Z,6.27
2022-12-24T17:20:52.396Z,6.69
2022-12-24T17:22:23.828Z,7.72
2022-12-24T17:23:55.143Z,7.11
2022-12-24T17:25:26.567Z,6.93
2022-12-24T17:26:57.922Z,6.57
2022-12-24T17:28:29.274Z,7.06
2022-12-24T17:30:00.844Z,7.09
2022-12-24T17:31:32.615Z,6.95
2022-12-24T17:33:08.045Z,7.04
2022-12-24T17:34:42.726Z,7.54
2022-12-24T17:36:14.173Z,7.18
2022-12-24T17:37:45.618Z,7.74
2022-12-24T17:39:20.835Z,7.56
2022-12-24T17:40:55.557Z,7.37
2022-12-24T17:42:27.293Z,7.40
2022-12-24T17:43:58.661Z,7.57
2022-12-24T17:45:30.199Z,7.36
2022-12-24T17:47:01.988Z,7.46
2022-12-24T17:48:33.673Z,7.56
2022-12-24T17:50:05.075Z,7.39
2022-12-24T17:51:41.493Z,7.34
2022-12-24T17:53:16.341Z,7.12
2022-12-24T17:54:47.738Z,7.16
2022-12-24T17:56:19.019Z,7.31
2022-12-24T17:57:50.567Z,6.79
2022-12-24T17:59:21.944Z,6.72
2022-12-24T18:00:53.472Z,7.25
2022-12-24T18:02:24.974Z,7.14
2022-12-24T18:03:56.543Z,7.25
2022-12-24T18:05:27.886Z,7.52
2022-12-24T18:07:02.435Z,8.54
2022-12-24T18:08:34.402Z,7.20
2022-12-24T18:10:06.020Z,7.31
2022-12-24T18:11:37.533Z,8.03
2022-12-24T18:13:11.498Z,7.49
2022-12-24T18:14:46.992Z,7.57
2022-12-24T18:16:18.481Z,7.76
2022-12-24T18:17:49.825Z,8.11
2022-12-24T18:19:21.058Z,8.80
2022-12-24T18:20:52.704Z,8.74
2022-12-24T18:22:24.013Z,8.15
2022-12-24T18:23:55.367Z,8.04
2022-12-24T18:25:26.976Z,8.46
2022-12-24T18:26:58.356Z,8.90
2022-12-24T18:28:29.799Z,8.50
2022-12-24T18:30:01.331Z,8.22
2022-12-24T18:31:32.906Z,8.57
2022-12-24T18:33:04.349Z,8.11
2022-12-24T18:34:35.636Z,8.04
2022-12-24T18:36:06.979Z,8.84
2022-12-24T18:37:38.529Z,7.58
2022-12-24T18:39:09.764Z,7.48
2022-12-24T18:40:41.004Z,8.06
2022-12-24T18:42:12.278Z,7.73
2022-12-24T18:43:43.698Z,7.75
2022-12-24T18:45:14.975Z,8.35
2022-12-24T18:46:46.681Z,8.31
2022-12-24T18:48:18.297Z,8.82
2022-12-24T18:49:49.716Z,8.12
2022-12-24T18:51:21.794Z,8.12
2022-12-24T18:52:53.128Z,8.83
2022-12-24T18:54:24.704Z,8.35
2022-12-24T18:55:56.085Z,8.87
2022-12-24T18:57:27.596Z,8.43
2022-12-24T18:58:59.014Z,9.15
2022-12-24T19:00:30.432Z,8.15
2022-12-24T19:02:02.043Z,8.42
2022-12-24T19:03:33.416Z,8.12
2022-12-24T19:05:04.679Z,7.98
2022-12-24T19:06:36.211Z,7.93
2022-12-24T19:08:37.822Z,8.06
2022-12-24T19:10:27.789Z,9.31
2022-12-24T19:11:59.031Z,8.55
2022-12-24T19:13:30.348Z,7.87
2022-12-24T19:15:02.229Z,8.65
2022-12-24T19:16:33.710Z,8.91
2022-12-24T19:18:05.227Z,8.89
2022-12-24T19:19:36.726Z,9.49
2022-12-24T19:21:08.076Z,9.79
2022-12-24T19:22:39.317Z,8.95
2022-12-24T19:24:10.741Z,8.46
2022-12-24T19:25:42.294Z,9.07
2022-12-24T19:27:13.587Z,9.43
2022-12-24T19:28:44.953Z,8.92
2022-12-24T19:30:16.220Z,8.24
2022-12-24T19:31:47.948Z,9.80
2022-12-24T19:33:19.278Z,9.50
2022-12-24T19:34:50.624Z,10.29
2022-12-24T19:36:22.151Z,10.55
2022-12-24T19:37:53.450Z,11.70
2022-12-24T19:39:31.605Z,9.84
2022-12-24T19:41:03.430Z,9.02
2022-12-24T19:42:34.796Z,8.69
2022-12-24T19:44:06.043Z,8.93
2022-12-24T19:45:37.410Z,9.19
2022-12-24T19:47:08.878Z,8.86
2022-12-24T19:48:40.162Z,8.59
2022-12-24T19:50:11.560Z,8.46
2022-12-24T19:51:43.202Z,9.01
2022-12-24T19:53:14.451Z,8.88
2022-12-24T19:54:45.713Z,9.03
2022-12-24T19:56:17.141Z,9.54
2022-12-24T19:57:48.425Z,9.44
2022-12-24T19:59:19.749Z,9.25
2022-12-24T20:00:51.203Z,8.91
2022-12-24T20:02:22.705Z,8.94
2022-12-24T20:03:54.526Z,9.08
2022-12-24T20:05:25.879Z,8.34
2022-12-24T20:07:00.523Z,8.75
2022-12-24T20:08:32.831Z,8.80
2022-12-24T20:10:04.261Z,8.73
2022-12-24T20:11:35.681Z,8.91
2022-12-24T20:13:07.117Z,8.52
2022-12-24T20:14:38.543Z,8.70
2022-12-24T20:16:10.303Z,8.77
2022-12-24T20:17:41.569Z,8.18
2022-12-24T20:19:12.871Z,8.34
2022-12-24T20:20:44.187Z,8.71
2022-12-24T20:22:15.415Z,8.15